sensor_id;sensor_type;location;lat;lon;timestamp;P1;durP1;ratioP1;P2;durP2;ratioP2
26086;SDS011;13851;43.434;28.338;2022-08-01T00:00:00;10.52;;;6.32;;
26086;SDS011;13851;43.434;28.338;2022-08-01T00:02:28;7.43;;;6.07;;
26086;SDS011;13851;43.434;28.338;2022-08-01T00:04:56;8.05;;;6.63;;
26086;SDS011;13851;43.434;28.338;2022-08-01T00:07:22;7.60;;;6.35;;
26086;SDS011;13851;43.434;28.338;2022-08-01T00:09:47;7.40;;;5.85;;
26086;SDS011;13851;43.434;28.338;2022-08-01T00:12:13;10.25;;;7.00;;
26086;SDS011;13851;43.434;28.338;2022-08-01T00:14:39;7.47;;;6.68;;
26086;SDS011;13851;43.434;28.338;2022-08-01T00:17:05;11.70;;;8.05;;
26086;SDS011;13851;43.434;28.338;2022-08-01T00:19:30;9.95;;;7.00;;
26086;SDS011;13851;43.434;28.338;2022-08-01T00:21:56;9.48;;;6.40;;
26086;SDS011;13851;43.434;28.338;2022-08-01T00:24:21;10.68;;;7.40;;
26086;SDS011;13851;43.434;28.338;2022-08-01T00:26:47;8.50;;;7.22;;
26086;SDS011;13851;43.434;28.338;2022-08-01T00:29:13;8.30;;;7.32;;
26086;SDS011;13851;43.434;28.338;2022-08-01T00:31:38;9.05;;;7.60;;
26086;SDS011;13851;43.434;28.338;2022-08-01T00:34:03;9.70;;;7.53;;
26086;SDS011;13851;43.434;28.338;2022-08-01T00:36:29;8.10;;;7.35;;
26086;SDS011;13851;43.434;28.338;2022-08-01T00:38:54;10.18;;;7.07;;
26086;SDS011;13851;43.434;28.338;2022-08-01T00:41:20;8.77;;;7.45;;
26086;SDS011;13851;43.434;28.338;2022-08-01T00:43:45;9.82;;;7.25;;
26086;SDS011;13851;43.434;28.338;2022-08-01T00:46:11;10.27;;;7.35;;
26086;SDS011;13851;43.434;28.338;2022-08-01T00:48:36;7.97;;;7.28;;
26086;SDS011;13851;43.434;28.338;2022-08-01T00:51:03;8.43;;;6.72;;
26086;SDS011;13851;43.434;28.338;2022-08-01T00:53:29;7.63;;;6.93;;
26086;SDS011;13851;43.434;28.338;2022-08-01T00:55:55;7.65;;;6.95;;
26086;SDS011;13851;43.434;28.338;2022-08-01T00:58:21;6.97;;;6.32;;
26086;SDS011;13851;43.434;28.338;2022-08-01T01:00:48;7.43;;;6.82;;
26086;SDS011;13851;43.434;28.338;2022-08-01T01:03:14;7.15;;;6.43;;
26086;SDS011;13851;43.434;28.338;2022-08-01T01:05:47;7.20;;;6.50;;
26086;SDS011;13851;43.434;28.338;2022-08-01T01:08:27;7.20;;;6.27;;
26086;SDS011;13851;43.434;28.338;2022-08-01T01:11:03;6.80;;;6.20;;
26086;SDS011;13851;43.434;28.338;2022-08-01T01:13:45;6.60;;;6.00;;
26086;SDS011;13851;43.434;28.338;2022-08-01T01:16:17;6.82;;;6.13;;
26086;SDS011;13851;43.434;28.338;2022-08-01T01:18:46;7.78;;;6.28;;
26086;SDS011;13851;43.434;28.338;2022-08-01T01:26:54;6.70;;;6.10;;
26086;SDS011;13851;43.434;28.338;2022-08-01T01:29:28;6.60;;;6.00;;
26086;SDS011;13851;43.434;28.338;2022-08-01T01:34:33;7.05;;;6.38;;
26086;SDS011;13851;43.434;28.338;2022-08-01T01:37:02;6.78;;;6.15;;
26086;SDS011;13851;43.434;28.338;2022-08-01T01:39:31;6.80;;;6.18;;
26086;SDS011;13851;43.434;28.338;2022-08-01T01:41:59;6.30;;;5.75;;
26086;SDS011;13851;43.434;28.338;2022-08-01T01:44:26;6.68;;;5.45;;
26086;SDS011;13851;43.434;28.338;2022-08-01T01:46:53;5.80;;;5.25;;
26086;SDS011;13851;43.434;28.338;2022-08-01T01:49:24;5.38;;;4.88;;
26086;SDS011;13851;43.434;28.338;2022-08-01T01:51:53;5.03;;;4.53;;
26086;SDS011;13851;43.434;28.338;2022-08-01T01:54:20;5.25;;;4.75;;
26086;SDS011;13851;43.434;28.338;2022-08-01T01:56:50;4.80;;;4.38;;
26086;SDS011;13851;43.434;28.338;2022-08-01T01:59:18;5.25;;;3.88;;
26086;SDS011;13851;43.434;28.338;2022-08-01T02:01:48;5.25;;;3.85;;
26086;SDS011;13851;43.434;28.338;2022-08-01T02:04:16;4.50;;;3.92;;
26086;SDS011;13851;43.434;28.338;2022-08-01T02:06:43;5.15;;;4.18;;
26086;SDS011;13851;43.434;28.338;2022-08-01T02:09:11;5.90;;;4.07;;
26086;SDS011;13851;43.434;28.338;2022-08-01T02:11:41;5.15;;;4.05;;
26086;SDS011;13851;43.434;28.338;2022-08-01T02:14:07;4.00;;;3.65;;
26086;SDS011;13851;43.434;28.338;2022-08-01T02:16:36;4.47;;;3.70;;
26086;SDS011;13851;43.434;28.338;2022-08-01T02:19:06;6.30;;;4.13;;
26086;SDS011;13851;43.434;28.338;2022-08-01T02:21:50;4.40;;;3.35;;
26086;SDS011;13851;43.434;28.338;2022-08-01T02:24:32;6.10;;;3.70;;
26086;SDS011;13851;43.434;28.338;2022-08-01T02:27:15;4.00;;;3.60;;
26086;SDS011;13851;43.434;28.338;2022-08-01T02:29:46;5.05;;;3.35;;
26086;SDS011;13851;43.434;28.338;2022-08-01T02:32:25;4.95;;;3.42;;
26086;SDS011;13851;43.434;28.338;2022-08-01T02:34:56;4.10;;;3.40;;
26086;SDS011;13851;43.434;28.338;2022-08-01T02:37:26;3.70;;;3.40;;
26086;SDS011;13851;43.434;28.338;2022-08-01T02:39:53;5.15;;;3.60;;
26086;SDS011;13851;43.434;28.338;2022-08-01T02:42:20;5.07;;;3.22;;
26086;SDS011;13851;43.434;28.338;2022-08-01T02:44:49;4.95;;;3.20;;
26086;SDS011;13851;43.434;28.338;2022-08-01T02:47:15;3.53;;;3.17;;
26086;SDS011;13851;43.434;28.338;2022-08-01T02:49:45;3.30;;;3.10;;
26086;SDS011;13851;43.434;28.338;2022-08-01T02:52:14;3.53;;;3.25;;
26086;SDS011;13851;43.434;28.338;2022-08-01T02:54:42;4.75;;;3.35;;
26086;SDS011;13851;43.434;28.338;2022-08-01T02:57:09;3.55;;;3.25;;
26086;SDS011;13851;43.434;28.338;2022-08-01T02:59:37;6.35;;;2.90;;
26086;SDS011;13851;43.434;28.338;2022-08-01T03:02:04;6.20;;;3.22;;
26086;SDS011;13851;43.434;28.338;2022-08-01T03:04:35;3.63;;;3.10;;
26086;SDS011;13851;43.434;28.338;2022-08-01T03:07:03;3.20;;;2.90;;
26086;SDS011;13851;43.434;28.338;2022-08-01T03:09:32;4.70;;;3.00;;
26086;SDS011;13851;43.434;28.338;2022-08-01T03:12:01;4.47;;;3.08;;
26086;SDS011;13851;43.434;28.338;2022-08-01T03:14:29;4.93;;;3.10;;
26086;SDS011;13851;43.434;28.338;2022-08-01T03:16:58;5.18;;;3.33;;
26086;SDS011;13851;43.434;28.338;2022-08-01T03:19:25;6.10;;;2.90;;
26086;SDS011;13851;43.434;28.338;2022-08-01T03:21:52;4.75;;;3.17;;
26086;SDS011;13851;43.434;28.338;2022-08-01T03:24:20;6.75;;;3.50;;
26086;SDS011;13851;43.434;28.338;2022-08-01T03:26:48;5.10;;;3.15;;
26086;SDS011;13851;43.434;28.338;2022-08-01T03:29:17;4.15;;;2.90;;
26086;SDS011;13851;43.434;28.338;2022-08-01T03:31:47;3.83;;;2.97;;
26086;SDS011;13851;43.434;28.338;2022-08-01T03:34:14;3.42;;;2.70;;
26086;SDS011;13851;43.434;28.338;2022-08-01T03:36:47;2.75;;;2.55;;
26086;SDS011;13851;43.434;28.338;2022-08-01T03:39:19;3.08;;;2.58;;
26086;SDS011;13851;43.434;28.338;2022-08-01T03:41:51;7.00;;;2.58;;
26086;SDS011;13851;43.434;28.338;2022-08-01T03:44:31;4.60;;;2.67;;
26086;SDS011;13851;43.434;28.338;2022-08-01T03:47:02;5.80;;;2.63;;
26086;SDS011;13851;43.434;28.338;2022-08-01T03:49:31;3.10;;;2.40;;
26086;SDS011;13851;43.434;28.338;2022-08-01T03:52:03;4.47;;;2.58;;
26086;SDS011;13851;43.434;28.338;2022-08-01T03:54:33;2.60;;;2.28;;
26086;SDS011;13851;43.434;28.338;2022-08-01T03:57:01;4.70;;;2.17;;
26086;SDS011;13851;43.434;28.338;2022-08-01T03:59:27;5.18;;;2.42;;
26086;SDS011;13851;43.434;28.338;2022-08-01T04:01:55;2.97;;;2.42;;
26086;SDS011;13851;43.434;28.338;2022-08-01T04:04:21;3.80;;;2.30;;
26086;SDS011;13851;43.434;28.338;2022-08-01T04:06:46;2.83;;;2.20;;
26086;SDS011;13851;43.434;28.338;2022-08-01T04:09:16;2.65;;;2.40;;
26086;SDS011;13851;43.434;28.338;2022-08-01T04:11:41;5.15;;;2.20;;
26086;SDS011;13851;43.434;28.338;2022-08-01T04:14:07;5.90;;;2.88;;
26086;SDS011;13851;43.434;28.338;2022-08-01T04:16:33;3.78;;;2.70;;
26086;SDS011;13851;43.434;28.338;2022-08-01T04:18:59;5.78;;;2.72;;
26086;SDS011;13851;43.434;28.338;2022-08-01T04:21:26;21.65;;;19.30;;
26086;SDS011;13851;43.434;28.338;2022-08-01T04:24:05;33.25;;;27.40;;
26086;SDS011;13851;43.434;28.338;2022-08-01T04:26:43;13.75;;;12.30;;
26086;SDS011;13851;43.434;28.338;2022-08-01T04:29:12;38.92;;;34.75;;
26086;SDS011;13851;43.434;28.338;2022-08-01T04:31:41;134.32;;;108.82;;
26086;SDS011;13851;43.434;28.338;2022-08-01T04:34:10;24.83;;;17.48;;
26086;SDS011;13851;43.434;28.338;2022-08-01T04:36:39;21.08;;;16.15;;
26086;SDS011;13851;43.434;28.338;2022-08-01T04:39:07;4.70;;;3.90;;
26086;SDS011;13851;43.434;28.338;2022-08-01T04:41:34;9.40;;;4.55;;
26086;SDS011;13851;43.434;28.338;2022-08-01T04:44:02;6.68;;;3.28;;
26086;SDS011;13851;43.434;28.338;2022-08-01T04:46:29;7.35;;;3.35;;
26086;SDS011;13851;43.434;28.338;2022-08-01T04:48:57;3.65;;;2.97;;
26086;SDS011;13851;43.434;28.338;2022-08-01T04:51:23;3.38;;;2.83;;
26086;SDS011;13851;43.434;28.338;2022-08-01T04:53:49;6.25;;;3.10;;
26086;SDS011;13851;43.434;28.338;2022-08-01T04:56:18;5.05;;;2.75;;
26086;SDS011;13851;43.434;28.338;2022-08-01T04:58:45;4.57;;;2.15;;
26086;SDS011;13851;43.434;28.338;2022-08-01T05:01:12;3.22;;;2.20;;
26086;SDS011;13851;43.434;28.338;2022-08-01T05:03:38;3.05;;;2.03;;
26086;SDS011;13851;43.434;28.338;2022-08-01T05:06:03;3.72;;;2.30;;
26086;SDS011;13851;43.434;28.338;2022-08-01T05:08:29;3.95;;;2.30;;
26086;SDS011;13851;43.434;28.338;2022-08-01T05:10:55;7.10;;;2.30;;
26086;SDS011;13851;43.434;28.338;2022-08-01T05:13:20;5.85;;;2.55;;
26086;SDS011;13851;43.434;28.338;2022-08-01T05:15:46;5.43;;;2.17;;
26086;SDS011;13851;43.434;28.338;2022-08-01T05:18:12;3.58;;;2.13;;
26086;SDS011;13851;43.434;28.338;2022-08-01T05:20:37;4.45;;;2.47;;
26086;SDS011;13851;43.434;28.338;2022-08-01T05:23:06;4.15;;;2.17;;
26086;SDS011;13851;43.434;28.338;2022-08-01T05:25:31;3.28;;;2.10;;
26086;SDS011;13851;43.434;28.338;2022-08-01T05:27:58;4.47;;;2.50;;
26086;SDS011;13851;43.434;28.338;2022-08-01T05:30:23;2.75;;;2.38;;
26086;SDS011;13851;43.434;28.338;2022-08-01T05:32:49;5.55;;;2.75;;
26086;SDS011;13851;43.434;28.338;2022-08-01T05:35:14;5.70;;;2.05;;
26086;SDS011;13851;43.434;28.338;2022-08-01T05:37:40;9.10;;;3.10;;
26086;SDS011;13851;43.434;28.338;2022-08-01T05:40:06;5.40;;;2.70;;
26086;SDS011;13851;43.434;28.338;2022-08-01T05:42:32;6.10;;;2.78;;
26086;SDS011;13851;43.434;28.338;2022-08-01T05:44:57;5.72;;;2.03;;
26086;SDS011;13851;43.434;28.338;2022-08-01T05:47:23;9.30;;;2.40;;
26086;SDS011;13851;43.434;28.338;2022-08-01T05:49:49;6.25;;;2.30;;
26086;SDS011;13851;43.434;28.338;2022-08-01T05:52:20;3.85;;;2.50;;
26086;SDS011;13851;43.434;28.338;2022-08-01T05:54:45;4.07;;;2.00;;
26086;SDS011;13851;43.434;28.338;2022-08-01T05:57:11;7.10;;;2.08;;
26086;SDS011;13851;43.434;28.338;2022-08-01T05:59:36;12.05;;;2.85;;
26086;SDS011;13851;43.434;28.338;2022-08-01T06:02:02;5.05;;;2.40;;
26086;SDS011;13851;43.434;28.338;2022-08-01T06:04:27;4.50;;;2.35;;
26086;SDS011;13851;43.434;28.338;2022-08-01T06:06:53;13.57;;;3.97;;
26086;SDS011;13851;43.434;28.338;2022-08-01T06:09:19;5.88;;;2.53;;
26086;SDS011;13851;43.434;28.338;2022-08-01T06:11:44;4.28;;;2.40;;
26086;SDS011;13851;43.434;28.338;2022-08-01T06:14:10;13.80;;;8.30;;
26086;SDS011;13851;43.434;28.338;2022-08-01T06:16:35;37.17;;;16.70;;
26086;SDS011;13851;43.434;28.338;2022-08-01T06:19:02;32.95;;;19.77;;
26086;SDS011;13851;43.434;28.338;2022-08-01T06:21:29;17.23;;;7.82;;
26086;SDS011;13851;43.434;28.338;2022-08-01T06:23:55;11.18;;;4.20;;
26086;SDS011;13851;43.434;28.338;2022-08-01T06:26:20;18.77;;;7.15;;
26086;SDS011;13851;43.434;28.338;2022-08-01T06:28:46;7.28;;;2.97;;
26086;SDS011;13851;43.434;28.338;2022-08-01T06:31:12;15.55;;;5.50;;
26086;SDS011;13851;43.434;28.338;2022-08-01T06:33:38;18.75;;;6.38;;
26086;SDS011;13851;43.434;28.338;2022-08-01T06:36:04;7.90;;;4.00;;
26086;SDS011;13851;43.434;28.338;2022-08-01T06:38:30;4.15;;;2.80;;
26086;SDS011;13851;43.434;28.338;2022-08-01T06:40:56;9.65;;;2.60;;
26086;SDS011;13851;43.434;28.338;2022-08-01T06:43:21;6.45;;;4.40;;
26086;SDS011;13851;43.434;28.338;2022-08-01T06:45:47;8.65;;;5.28;;
26086;SDS011;13851;43.434;28.338;2022-08-01T06:48:13;21.30;;;16.60;;
26086;SDS011;13851;43.434;28.338;2022-08-01T06:50:38;2.85;;;2.50;;
26086;SDS011;13851;43.434;28.338;2022-08-01T06:53:04;4.47;;;2.42;;
26086;SDS011;13851;43.434;28.338;2022-08-01T06:55:30;2.72;;;2.05;;
26086;SDS011;13851;43.434;28.338;2022-08-01T06:57:56;6.75;;;2.47;;
26086;SDS011;13851;43.434;28.338;2022-08-01T07:00:22;5.45;;;2.25;;
26086;SDS011;13851;43.434;28.338;2022-08-01T07:02:50;6.60;;;2.90;;
26086;SDS011;13851;43.434;28.338;2022-08-01T07:05:16;10.23;;;2.38;;
26086;SDS011;13851;43.434;28.338;2022-08-01T07:07:42;6.75;;;2.33;;
26086;SDS011;13851;43.434;28.338;2022-08-01T07:10:08;6.18;;;3.50;;
26086;SDS011;13851;43.434;28.338;2022-08-01T07:12:34;3.15;;;2.35;;
26086;SDS011;13851;43.434;28.338;2022-08-01T07:15:07;4.05;;;1.95;;
26086;SDS011;13851;43.434;28.338;2022-08-01T07:17:39;3.13;;;2.10;;
26086;SDS011;13851;43.434;28.338;2022-08-01T07:20:09;3.55;;;2.17;;
26086;SDS011;13851;43.434;28.338;2022-08-01T07:25:03;4.13;;;2.20;;
26086;SDS011;13851;43.434;28.338;2022-08-01T07:27:30;3.47;;;1.92;;
26086;SDS011;13851;43.434;28.338;2022-08-01T07:29:55;5.60;;;2.00;;
26086;SDS011;13851;43.434;28.338;2022-08-01T07:32:21;4.68;;;2.45;;
26086;SDS011;13851;43.434;28.338;2022-08-01T07:34:46;8.20;;;4.93;;
26086;SDS011;13851;43.434;28.338;2022-08-01T07:37:12;2.22;;;1.70;;
26086;SDS011;13851;43.434;28.338;2022-08-01T07:39:37;8.90;;;3.25;;
26086;SDS011;13851;43.434;28.338;2022-08-01T07:42:03;5.90;;;2.33;;
26086;SDS011;13851;43.434;28.338;2022-08-01T07:44:28;3.53;;;2.15;;
26086;SDS011;13851;43.434;28.338;2022-08-01T07:46:54;5.13;;;1.80;;
26086;SDS011;13851;43.434;28.338;2022-08-01T07:49:19;6.38;;;2.60;;
26086;SDS011;13851;43.434;28.338;2022-08-01T07:51:46;5.10;;;3.30;;
26086;SDS011;13851;43.434;28.338;2022-08-01T07:54:12;6.18;;;2.50;;
26086;SDS011;13851;43.434;28.338;2022-08-01T07:56:38;2.70;;;1.98;;
26086;SDS011;13851;43.434;28.338;2022-08-01T07:59:03;6.88;;;1.65;;
26086;SDS011;13851;43.434;28.338;2022-08-01T08:01:29;4.03;;;2.13;;
26086;SDS011;13851;43.434;28.338;2022-08-01T08:03:54;6.22;;;2.85;;
26086;SDS011;13851;43.434;28.338;2022-08-01T08:06:20;5.10;;;2.60;;
26086;SDS011;13851;43.434;28.338;2022-08-01T08:08:46;4.05;;;2.25;;
26086;SDS011;13851;43.434;28.338;2022-08-01T08:11:12;5.22;;;2.20;;
26086;SDS011;13851;43.434;28.338;2022-08-01T08:13:37;3.42;;;2.33;;
26086;SDS011;13851;43.434;28.338;2022-08-01T08:16:03;4.03;;;2.22;;
26086;SDS011;13851;43.434;28.338;2022-08-01T08:18:29;6.65;;;2.42;;
26086;SDS011;13851;43.434;28.338;2022-08-01T08:20:54;5.57;;;2.03;;
26086;SDS011;13851;43.434;28.338;2022-08-01T08:23:20;4.50;;;2.17;;
26086;SDS011;13851;43.434;28.338;2022-08-01T08:26:04;7.03;;;2.42;;
26086;SDS011;13851;43.434;28.338;2022-08-01T08:28:29;4.50;;;2.10;;
26086;SDS011;13851;43.434;28.338;2022-08-01T08:30:55;4.90;;;1.90;;
26086;SDS011;13851;43.434;28.338;2022-08-01T08:33:20;3.50;;;2.22;;
26086;SDS011;13851;43.434;28.338;2022-08-01T08:35:46;2.75;;;1.63;;
26086;SDS011;13851;43.434;28.338;2022-08-01T08:38:12;5.00;;;1.60;;
26086;SDS011;13851;43.434;28.338;2022-08-01T08:40:37;2.97;;;2.38;;
26086;SDS011;13851;43.434;28.338;2022-08-01T08:43:04;1.85;;;1.75;;
26086;SDS011;13851;43.434;28.338;2022-08-01T08:45:31;4.00;;;1.67;;
26086;SDS011;13851;43.434;28.338;2022-08-01T08:47:57;4.40;;;1.80;;
26086;SDS011;13851;43.434;28.338;2022-08-01T08:50:23;4.03;;;2.10;;
26086;SDS011;13851;43.434;28.338;2022-08-01T08:52:50;2.13;;;1.50;;
26086;SDS011;13851;43.434;28.338;2022-08-01T08:55:19;3.05;;;1.92;;
26086;SDS011;13851;43.434;28.338;2022-08-01T08:57:46;2.10;;;1.90;;
26086;SDS011;13851;43.434;28.338;2022-08-01T09:00:13;5.35;;;1.60;;
26086;SDS011;13851;43.434;28.338;2022-08-01T09:02:40;6.70;;;1.77;;
26086;SDS011;13851;43.434;28.338;2022-08-01T09:05:08;5.57;;;3.30;;
26086;SDS011;13851;43.434;28.338;2022-08-01T09:07:34;4.63;;;2.20;;
26086;SDS011;13851;43.434;28.338;2022-08-01T09:10:00;4.82;;;3.00;;
26086;SDS011;13851;43.434;28.338;2022-08-01T09:12:26;7.68;;;2.55;;
26086;SDS011;13851;43.434;28.338;2022-08-01T09:14:51;4.85;;;1.92;;
26086;SDS011;13851;43.434;28.338;2022-08-01T09:17:18;6.38;;;2.75;;
26086;SDS011;13851;43.434;28.338;2022-08-01T09:19:55;2.58;;;1.85;;
26086;SDS011;13851;43.434;28.338;2022-08-01T09:22:21;5.18;;;2.20;;
26086;SDS011;13851;43.434;28.338;2022-08-01T09:27:31;2.97;;;1.23;;
26086;SDS011;13851;43.434;28.338;2022-08-01T09:30:09;1.25;;;1.20;;
26086;SDS011;13851;43.434;28.338;2022-08-01T09:35:37;2.10;;;1.20;;
26086;SDS011;13851;43.434;28.338;2022-08-01T09:38:13;5.40;;;1.48;;
26086;SDS011;13851;43.434;28.338;2022-08-01T09:40:44;3.17;;;2.00;;
26086;SDS011;13851;43.434;28.338;2022-08-01T09:43:11;3.63;;;1.75;;
26086;SDS011;13851;43.434;28.338;2022-08-01T09:45:38;5.85;;;1.50;;
26086;SDS011;13851;43.434;28.338;2022-08-01T09:48:07;2.75;;;1.15;;
26086;SDS011;13851;43.434;28.338;2022-08-01T09:53:10;20.13;;;13.98;;
26086;SDS011;13851;43.434;28.338;2022-08-01T09:55:37;11.43;;;6.68;;
26086;SDS011;13851;43.434;28.338;2022-08-01T09:58:03;3.88;;;3.40;;
26086;SDS011;13851;43.434;28.338;2022-08-01T10:00:30;1.40;;;1.30;;
26086;SDS011;13851;43.434;28.338;2022-08-01T10:03:17;5.38;;;1.73;;
26086;SDS011;13851;43.434;28.338;2022-08-01T10:05:47;2.95;;;2.40;;
26086;SDS011;13851;43.434;28.338;2022-08-01T10:08:13;2.95;;;2.40;;
26086;SDS011;13851;43.434;28.338;2022-08-01T10:10:39;3.63;;;2.15;;
26086;SDS011;13851;43.434;28.338;2022-08-01T10:13:05;4.20;;;2.85;;
26086;SDS011;13851;43.434;28.338;2022-08-01T10:15:33;3.63;;;1.80;;
26086;SDS011;13851;43.434;28.338;2022-08-01T10:18:00;6.97;;;6.20;;
26086;SDS011;13851;43.434;28.338;2022-08-01T10:20:31;4.40;;;2.22;;
26086;SDS011;13851;43.434;28.338;2022-08-01T10:22:58;4.82;;;2.90;;
26086;SDS011;13851;43.434;28.338;2022-08-01T10:27:57;5.72;;;3.35;;
26086;SDS011;13851;43.434;28.338;2022-08-01T10:30:25;3.25;;;1.70;;
26086;SDS011;13851;43.434;28.338;2022-08-01T10:32:51;1.50;;;1.40;;
26086;SDS011;13851;43.434;28.338;2022-08-01T10:35:20;2.78;;;1.73;;
26086;SDS011;13851;43.434;28.338;2022-08-01T10:37:46;6.88;;;2.25;;
26086;SDS011;13851;43.434;28.338;2022-08-01T10:40:13;3.30;;;3.00;;
26086;SDS011;13851;43.434;28.338;2022-08-01T10:42:40;4.75;;;1.98;;
26086;SDS011;13851;43.434;28.338;2022-08-01T10:45:08;4.40;;;2.50;;
26086;SDS011;13851;43.434;28.338;2022-08-01T10:47:38;9.68;;;7.88;;
26086;SDS011;13851;43.434;28.338;2022-08-01T10:50:54;4.03;;;1.80;;
26086;SDS011;13851;43.434;28.338;2022-08-01T10:53:16;2.25;;;1.95;;
26086;SDS011;13851;43.434;28.338;2022-08-01T10:55:46;4.97;;;1.80;;
26086;SDS011;13851;43.434;28.338;2022-08-01T10:58:25;3.40;;;2.20;;
26086;SDS011;13851;43.434;28.338;2022-08-01T11:03:38;6.78;;;4.68;;
26086;SDS011;13851;43.434;28.338;2022-08-01T11:06:03;4.65;;;1.60;;
26086;SDS011;13851;43.434;28.338;2022-08-01T11:08:29;5.70;;;2.38;;
26086;SDS011;13851;43.434;28.338;2022-08-01T11:10:59;2.85;;;1.90;;
26086;SDS011;13851;43.434;28.338;2022-08-01T11:16:28;4.97;;;1.75;;
26086;SDS011;13851;43.434;28.338;2022-08-01T11:18:54;4.25;;;1.58;;
26086;SDS011;13851;43.434;28.338;2022-08-01T11:21:44;2.10;;;1.48;;
26086;SDS011;13851;43.434;28.338;2022-08-01T11:27:17;5.85;;;2.45;;
26086;SDS011;13851;43.434;28.338;2022-08-01T11:30:21;4.90;;;2.53;;
26086;SDS011;13851;43.434;28.338;2022-08-01T11:32:48;4.07;;;1.80;;
26086;SDS011;13851;43.434;28.338;2022-08-01T11:35:15;3.63;;;1.45;;
26086;SDS011;13851;43.434;28.338;2022-08-01T11:37:41;3.17;;;1.30;;
26086;SDS011;13851;43.434;28.338;2022-08-01T11:40:14;30.67;;;24.38;;
26086;SDS011;13851;43.434;28.338;2022-08-01T11:42:44;3.22;;;1.50;;
26086;SDS011;13851;43.434;28.338;2022-08-01T11:45:10;15.38;;;8.65;;
26086;SDS011;13851;43.434;28.338;2022-08-01T11:47:43;19.40;;;13.75;;
26086;SDS011;13851;43.434;28.338;2022-08-01T11:53:01;4.43;;;2.60;;
26086;SDS011;13851;43.434;28.338;2022-08-01T11:55:32;7.43;;;4.60;;
26086;SDS011;13851;43.434;28.338;2022-08-01T11:58:04;6.72;;;3.88;;
26086;SDS011;13851;43.434;28.338;2022-08-01T12:00:32;2.53;;;1.80;;
26086;SDS011;13851;43.434;28.338;2022-08-01T12:03:03;39.20;;;21.63;;
26086;SDS011;13851;43.434;28.338;2022-08-01T12:05:30;16.48;;;8.07;;
26086;SDS011;13851;43.434;28.338;2022-08-01T12:07:58;4.15;;;1.30;;
26086;SDS011;13851;43.434;28.338;2022-08-01T12:10:26;6.97;;;3.80;;
26086;SDS011;13851;43.434;28.338;2022-08-01T12:13:00;10.75;;;4.78;;
26086;SDS011;13851;43.434;28.338;2022-08-01T12:15:33;22.58;;;15.40;;
26086;SDS011;13851;43.434;28.338;2022-08-01T12:18:01;2.05;;;1.50;;
26086;SDS011;13851;43.434;28.338;2022-08-01T12:20:36;2.47;;;1.60;;
26086;SDS011;13851;43.434;28.338;2022-08-01T12:23:04;2.30;;;1.65;;
26086;SDS011;13851;43.434;28.338;2022-08-01T12:25:32;3.15;;;1.70;;
26086;SDS011;13851;43.434;28.338;2022-08-01T12:28:00;1.67;;;1.50;;
26086;SDS011;13851;43.434;28.338;2022-08-01T12:30:27;2.10;;;1.65;;
26086;SDS011;13851;43.434;28.338;2022-08-01T12:32:53;1.48;;;1.38;;
26086;SDS011;13851;43.434;28.338;2022-08-01T12:35:20;2.35;;;1.55;;
26086;SDS011;13851;43.434;28.338;2022-08-01T12:37:51;2.90;;;1.60;;
26086;SDS011;13851;43.434;28.338;2022-08-01T12:42:51;2.22;;;1.52;;
26086;SDS011;13851;43.434;28.338;2022-08-01T12:45:19;4.35;;;1.30;;
26086;SDS011;13851;43.434;28.338;2022-08-01T12:48:14;2.80;;;1.95;;
26086;SDS011;13851;43.434;28.338;2022-08-01T12:50:43;4.88;;;1.70;;
26086;SDS011;13851;43.434;28.338;2022-08-01T12:53:10;2.53;;;1.42;;
26086;SDS011;13851;43.434;28.338;2022-08-01T12:55:54;3.92;;;1.50;;
26086;SDS011;13851;43.434;28.338;2022-08-01T12:58:20;4.88;;;1.70;;
26086;SDS011;13851;43.434;28.338;2022-08-01T13:00:47;1.60;;;1.40;;
26086;SDS011;13851;43.434;28.338;2022-08-01T13:03:15;3.00;;;1.80;;
26086;SDS011;13851;43.434;28.338;2022-08-01T13:08:29;3.63;;;1.60;;
26086;SDS011;13851;43.434;28.338;2022-08-01T13:13:40;3.55;;;1.83;;
26086;SDS011;13851;43.434;28.338;2022-08-01T13:16:19;1.42;;;1.23;;
26086;SDS011;13851;43.434;28.338;2022-08-01T13:18:48;4.32;;;1.50;;
26086;SDS011;13851;43.434;28.338;2022-08-01T13:24:05;2.80;;;1.63;;
26086;SDS011;13851;43.434;28.338;2022-08-01T13:29:06;3.42;;;1.80;;
26086;SDS011;13851;43.434;28.338;2022-08-01T13:31:36;4.90;;;1.50;;
26086;SDS011;13851;43.434;28.338;2022-08-01T13:34:03;2.28;;;1.42;;
26086;SDS011;13851;43.434;28.338;2022-08-01T13:36:29;2.50;;;1.40;;
26086;SDS011;13851;43.434;28.338;2022-08-01T13:38:56;1.95;;;1.75;;
26086;SDS011;13851;43.434;28.338;2022-08-01T13:41:41;1.80;;;1.60;;
26086;SDS011;13851;43.434;28.338;2022-08-01T13:44:08;6.35;;;2.08;;
26086;SDS011;13851;43.434;28.338;2022-08-01T13:46:35;6.18;;;1.58;;
26086;SDS011;13851;43.434;28.338;2022-08-01T13:49:02;2.85;;;1.50;;
26086;SDS011;13851;43.434;28.338;2022-08-01T13:51:27;4.70;;;2.40;;
26086;SDS011;13851;43.434;28.338;2022-08-01T13:53:53;3.72;;;3.00;;
26086;SDS011;13851;43.434;28.338;2022-08-01T13:56:19;3.30;;;2.42;;
26086;SDS011;13851;43.434;28.338;2022-08-01T13:58:45;4.07;;;2.58;;
26086;SDS011;13851;43.434;28.338;2022-08-01T14:01:11;2.55;;;2.38;;
26086;SDS011;13851;43.434;28.338;2022-08-01T14:03:36;2.70;;;1.83;;
26086;SDS011;13851;43.434;28.338;2022-08-01T14:06:02;3.65;;;3.20;;
26086;SDS011;13851;43.434;28.338;2022-08-01T14:08:28;3.65;;;2.80;;
26086;SDS011;13851;43.434;28.338;2022-08-01T14:10:53;3.63;;;3.28;;
26086;SDS011;13851;43.434;28.338;2022-08-01T14:13:22;3.88;;;3.10;;
26086;SDS011;13851;43.434;28.338;2022-08-01T14:15:48;3.30;;;2.47;;
26086;SDS011;13851;43.434;28.338;2022-08-01T14:18:15;3.35;;;3.15;;
26086;SDS011;13851;43.434;28.338;2022-08-01T14:20:41;3.70;;;2.53;;
26086;SDS011;13851;43.434;28.338;2022-08-01T14:23:07;3.60;;;2.83;;
26086;SDS011;13851;43.434;28.338;2022-08-01T14:25:38;5.63;;;3.50;;
26086;SDS011;13851;43.434;28.338;2022-08-01T14:28:05;3.53;;;3.15;;
26086;SDS011;13851;43.434;28.338;2022-08-01T14:30:31;3.70;;;3.40;;
26086;SDS011;13851;43.434;28.338;2022-08-01T14:32:57;3.58;;;3.28;;
26086;SDS011;13851;43.434;28.338;2022-08-01T14:35:23;4.60;;;3.88;;
26086;SDS011;13851;43.434;28.338;2022-08-01T14:37:49;7.43;;;4.13;;
26086;SDS011;13851;43.434;28.338;2022-08-01T14:40:15;6.60;;;4.40;;
26086;SDS011;13851;43.434;28.338;2022-08-01T14:42:40;5.40;;;4.90;;
26086;SDS011;13851;43.434;28.338;2022-08-01T14:45:06;5.55;;;4.40;;
26086;SDS011;13851;43.434;28.338;2022-08-01T14:47:36;5.25;;;4.60;;
26086;SDS011;13851;43.434;28.338;2022-08-01T14:50:03;5.38;;;4.50;;
26086;SDS011;13851;43.434;28.338;2022-08-01T14:52:31;4.45;;;4.15;;
26086;SDS011;13851;43.434;28.338;2022-08-01T14:54:58;4.82;;;4.40;;
26086;SDS011;13851;43.434;28.338;2022-08-01T14:57:24;8.52;;;4.80;;
26086;SDS011;13851;43.434;28.338;2022-08-01T14:59:50;7.32;;;4.78;;
26086;SDS011;13851;43.434;28.338;2022-08-01T15:02:15;8.00;;;5.25;;
26086;SDS011;13851;43.434;28.338;2022-08-01T15:04:42;5.28;;;4.75;;
26086;SDS011;13851;43.434;28.338;2022-08-01T15:07:09;5.10;;;4.70;;
26086;SDS011;13851;43.434;28.338;2022-08-01T15:09:36;5.38;;;4.85;;
26086;SDS011;13851;43.434;28.338;2022-08-01T15:12:02;6.68;;;4.80;;
26086;SDS011;13851;43.434;28.338;2022-08-01T15:14:28;5.20;;;4.20;;
26086;SDS011;13851;43.434;28.338;2022-08-01T15:17:12;6.88;;;4.40;;
26086;SDS011;13851;43.434;28.338;2022-08-01T15:19:51;5.03;;;4.50;;
26086;SDS011;13851;43.434;28.338;2022-08-01T15:22:18;1522.68;;;770.13;;
26086;SDS011;13851;43.434;28.338;2022-08-01T15:24:46;890.55;;;630.45;;